Waterford Township, Michigan
Current Conditions -  °F | °C
As of 7:53 PM on Saturday 20 Dec 2014 (Local Time) from KPTK Reporting Station
Overcast Overcast  
Wind Chill: 28°   Ceiling: 2600
Heat Index: 28°   Visibility: 10mi
Dew Point: 20°   Wind: 0mph
Humidity: 72%   Direction: NA
Pressure: 30.27"   Gusts: NA
Location:  42.6485°N, 83.3542°W
Report Text: KPTK 210053Z 00000KT 10SM OVC026 M02/M07 A3027 RMK AO2 SLP263 T10221067
Loading
Personal Weather Stations






























Interactive Weather Map New forecast layout! Learn more

10-Day Weather Forecast

Advertisements
Track Severe Weather on mobile